Nybakken — LG4198 — position and weather

sailwx.info

Track history (hours):
 
Tides and Currents Weather Stations Pressure Air Temp Water Temp Dewpoint Dewpoint Depression Visibility Wind Speed Wind Dir Waves Ship Positions

Nybakken

Last reported at 2017-Nov-16 09:05 UTC. Time now 2017-Dec-16 13:06 UTC.
Position N 71°25' E 026°51'.
Warning: this ship's position is 30 days out of date.

Length 9 m.

Type: Fishing. MMSI: 257305340.

Date/timePositionNaut miles runAvg speedWind from/ knotsBaromVisibWave heightAir tempDewpointWater temp
2017-Nov-16 09:05N 71°25' E 026°51'0 0.9
2017-Nov-16 09:00N 71°25' E 026°51'0 0.7
2017-Nov-16 08:30N 71°26' E 026°50'0 0.3
2017-Nov-16 08:00N 71°25' E 026°50'1 1.0
2017-Nov-16 07:30N 71°25' E 026°50'1 2.6
2017-Nov-16 07:00N 71°24' E 026°49'1 1.5
2017-Nov-16 06:30N 71°23' E 026°48'3 5.6
2017-Nov-16 06:00N 71°20' E 026°48'1 1.1
2017-Nov-16 05:30N 71°20' E 026°49'1 1.5
2017-Nov-16 05:00N 71°21' E 026°50'1 1.5
2017-Nov-16 04:30N 71°22' E 026°50'1 1.4
2017-Nov-16 03:59N 71°22' E 026°50'1 1.4
2017-Nov-16 03:29N 71°23' E 026°50'1 1.2
2017-Nov-16 02:59N 71°24' E 026°50'1 1.4
2017-Nov-16 02:29N 71°24' E 026°49'0 0.6
2017-Nov-16 02:00N 71°24' E 026°48'0 0.5
2017-Nov-16 01:30N 71°24' E 026°49'2 3.7
2017-Nov-16 01:00N 71°23' E 026°51'1 2.0
2017-Nov-16 00:30N 71°22' E 026°51'1 1.4
2017-Nov-15 23:59N 71°22' E 026°50'1 1.2
2017-Nov-15 23:30N 71°23' E 026°49'1 1.4
2017-Nov-15 22:59N 71°24' E 026°49'1 1.5
2017-Nov-15 22:30N 71°24' E 026°48'2 4.0
2017-Nov-15 22:00N 71°24' E 026°42'2 3.3
2017-Nov-15 21:30N 71°23' E 026°46'3 6.1
2017-Nov-15 21:00N 71°20' E 026°47'4 7.2
2017-Nov-15 20:30N 71°16' E 026°43'4 7.7
2017-Nov-15 20:00N 71°13' E 026°38'4 7.9
2017-Nov-15 19:30N 71°09' E 026°32'4 7.7
2017-Nov-15 18:59N 71°06' E 026°27'3 6.8
2017-Nov-15 18:31N 71°03' E 026°21'3 6.2
2017-Nov-15 18:00N 71°01' E 026°15'3 6.2
2017-Nov-15 17:29N 70°59' E 026°07'2 3.2
2017-Nov-15 16:58N 70°59' E 026°02'0 0.4
2017-Nov-15 16:25N 70°59' E 026°02'0 0.0
2017-Nov-15 15:46N 70°59' E 026°02'0 0.0
2017-Nov-15 15:28N 70°59' E 026°02'0 0.9
2017-Nov-15 14:59N 70°59' E 026°01'1 1.8
2017-Nov-15 14:28N 70°59' E 025°58'0 0.0
2017-Nov-15 13:58N 70°59' E 025°58'0 0.0
2017-Nov-15 13:28N 70°59' E 025°58'0 0.0
2017-Nov-15 12:58N 70°59' E 025°58'0 0.0
2017-Nov-15 12:28N 70°59' E 025°58'0 0.0
2017-Nov-15 11:58N 70°59' E 025°58'0 0.0
2017-Nov-15 11:28N 70°59' E 025°58'0 0.0
2017-Nov-15 10:58N 70°59' E 025°58'0 0.0
2017-Nov-15 10:28N 70°59' E 025°58'0 0.0
2017-Nov-15 09:58N 70°59' E 025°58'0 0.0
2017-Nov-15 09:28N 70°59' E 025°58'0 0.0
2017-Nov-15 08:58N 70°59' E 025°58'0 0.0
2017-Nov-15 08:28N 70°59' E 025°58'0 0.0
2017-Nov-15 07:58N 70°59' E 025°58'0 0.0
2017-Nov-15 07:28N 70°59' E 025°58'0 0.0
2017-Nov-15 06:58N 70°59' E 025°58'0 0.0
2017-Nov-15 06:28N 70°59' E 025°58'0 0.0
2017-Nov-15 05:58N 70°59' E 025°58'0 0.0
2017-Nov-15 05:28N 70°59' E 025°58'0 0.0
2017-Nov-15 04:58N 70°59' E 025°58'0 0.0
2017-Nov-15 04:28N 70°59' E 025°58'0 0.0
2017-Nov-15 03:58N 70°59' E 025°58'0 0.0
2017-Nov-15 03:28N 70°59' E 025°58'0 0.0
2017-Nov-15 02:58N 70°59' E 025°58'0 0.0
2017-Nov-15 02:28N 70°59' E 025°58'0 0.0
2017-Nov-15 01:58N 70°59' E 025°58'0 0.0
2017-Nov-15 01:28N 70°59' E 025°58'0 0.0
2017-Nov-15 00:58N 70°59' E 025°58'0 0.0
2017-Nov-15 00:28N 70°59' E 025°58'0 0.0
2017-Nov-14 23:58N 70°59' E 025°58'0 0.0
2017-Nov-14 23:28N 70°59' E 025°58'0 0.0
2017-Nov-14 22:58N 70°59' E 025°58'0 0.0
2017-Nov-14 22:28N 70°59' E 025°58'0 0.0
2017-Nov-14 21:58N 70°59' E 025°58'0 0.0
2017-Nov-14 21:28N 70°59' E 025°58'0 0.0
2017-Nov-14 20:58N 70°59' E 025°58'0 0.0
2017-Nov-14 20:28N 70°59' E 025°58'0 0.0
2017-Nov-14 19:58N 70°59' E 025°58'0 0.0
2017-Nov-14 19:28N 70°59' E 025°58'1 1.1
2017-Nov-14 19:00N 70°59' E 025°57'4 7.8
2017-Nov-14 18:29N 70°59' E 026°09'4 8.6
2017-Nov-14 18:00N 71°01' E 026°21'4 8.5
2017-Nov-14 17:30N 71°03' E 026°31'5 8.9
2017-Nov-14 17:00N 71°08' E 026°36'4 9.1
2017-Nov-14 16:30N 71°12' E 026°41'4 8.7
2017-Nov-14 16:00N 71°16' E 026°44'5 8.7
2017-Nov-14 15:29N 71°21' E 026°44'3 5.8
2017-Nov-14 15:00N 71°23' E 026°42'2 3.1
2017-Nov-14 14:29N 71°25' E 026°43'1 2.7
2017-Nov-14 14:00N 71°24' E 026°42'2 3.8
2017-Nov-14 13:29N 71°26' E 026°43'2 4.1
2017-Nov-14 13:00N 71°26' E 026°49'2 3.1
2017-Nov-14 12:30N 71°24' E 026°49'0 0.6
2017-Nov-14 12:00N 71°25' E 026°48'2 3.0
2017-Nov-14 11:29N 71°26' E 026°50'2 3.7
2017-Nov-14 11:00N 71°25' E 026°55'0 0.6
2017-Nov-14 10:30N 71°25' E 026°54'2 3.2
2017-Nov-14 10:00N 71°23' E 026°55'1 2.7
2017-Nov-14 09:30N 71°24' E 026°54'1 1.6
2017-Nov-14 09:00N 71°25' E 026°54'0 0.5
2017-Nov-14 08:30N 71°25' E 026°54'0 0.5
2017-Nov-14 08:00N 71°25' E 026°55'0 0.5
2017-Nov-14 07:30N 71°25' E 026°55'0 0.7
2017-Nov-14 07:00N 71°25' E 026°56'0 0.8
2017-Nov-14 06:30N 71°25' E 026°57'1 1.0
2017-Nov-14 05:59N 71°26' E 026°59'4 7.7
2017-Nov-14 05:30N 71°22' E 026°59'4 7.3
2017-Nov-14 05:00N 71°18' E 026°55'4 7.2
2017-Nov-14 04:30N 71°15' E 026°49'3 6.9
2017-Nov-14 04:00N 71°12' E 026°43'3 6.6
2017-Nov-14 03:30N 71°10' E 026°38'3 6.2
2017-Nov-14 03:00N 71°07' E 026°32'3 6.2
2017-Nov-14 02:30N 71°05' E 026°26'3 6.8
2017-Nov-14 02:00N 71°02' E 026°20'4 7.1
2017-Nov-14 01:30N 70°60' E 026°12'3 7.0
2017-Nov-14 01:00N 70°58' E 026°02'1 1.5
2017-Nov-14 00:30N 70°59' E 026°02'0 0.4
2017-Nov-13 23:57N 70°59' E 026°02'0 0.0
2017-Nov-13 23:30N 70°59' E 026°02'2 3.2
2017-Nov-13 23:00N 70°59' E 025°57'0 0.9
2017-Nov-13 22:30N 70°59' E 025°58'0 0.0
2017-Nov-13 22:00N 70°59' E 025°58'  
Track history (hours):
 
Tides and Currents Weather Stations Pressure Air Temp Water Temp Dewpoint Dewpoint Depression Visibility Wind Speed Wind Dir Waves Ship Positions

Nybakken

Last reported at 2017-Nov-16 09:05 UTC. Time now 2017-Dec-16 13:06 UTC.
Position N 71°25' E 026°51'.
Warning: this ship's position is 30 days out of date.

Length 9 m.

Type: Fishing. MMSI: 257305340.

Date/timePositionNaut miles runAvg speedWind from/ knotsBaromVisibWave heightAir tempDewpointWater temp
2017-Nov-16 09:05N 71°25' E 026°51'0 0.9
2017-Nov-16 09:00N 71°25' E 026°51'0 0.7
2017-Nov-16 08:30N 71°26' E 026°50'0 0.3
2017-Nov-16 08:00N 71°25' E 026°50'1 1.0
2017-Nov-16 07:30N 71°25' E 026°50'1 2.6
2017-Nov-16 07:00N 71°24' E 026°49'1 1.5
2017-Nov-16 06:30N 71°23' E 026°48'3 5.6
2017-Nov-16 06:00N 71°20' E 026°48'1 1.1
2017-Nov-16 05:30N 71°20' E 026°49'1 1.5
2017-Nov-16 05:00N 71°21' E 026°50'1 1.5
2017-Nov-16 04:30N 71°22' E 026°50'1 1.4
2017-Nov-16 03:59N 71°22' E 026°50'1 1.4
2017-Nov-16 03:29N 71°23' E 026°50'1 1.2
2017-Nov-16 02:59N 71°24' E 026°50'1 1.4
2017-Nov-16 02:29N 71°24' E 026°49'0 0.6
2017-Nov-16 02:00N 71°24' E 026°48'0 0.5
2017-Nov-16 01:30N 71°24' E 026°49'2 3.7
2017-Nov-16 01:00N 71°23' E 026°51'1 2.0
2017-Nov-16 00:30N 71°22' E 026°51'1 1.4
2017-Nov-15 23:59N 71°22' E 026°50'1 1.2
2017-Nov-15 23:30N 71°23' E 026°49'1 1.4
2017-Nov-15 22:59N 71°24' E 026°49'1 1.5
2017-Nov-15 22:30N 71°24' E 026°48'2 4.0
2017-Nov-15 22:00N 71°24' E 026°42'2 3.3
2017-Nov-15 21:30N 71°23' E 026°46'3 6.1
2017-Nov-15 21:00N 71°20' E 026°47'4 7.2
2017-Nov-15 20:30N 71°16' E 026°43'4 7.7
2017-Nov-15 20:00N 71°13' E 026°38'4 7.9
2017-Nov-15 19:30N 71°09' E 026°32'4 7.7
2017-Nov-15 18:59N 71°06' E 026°27'3 6.8
2017-Nov-15 18:31N 71°03' E 026°21'3 6.2
2017-Nov-15 18:00N 71°01' E 026°15'3 6.2
2017-Nov-15 17:29N 70°59' E 026°07'2 3.2
2017-Nov-15 16:58N 70°59' E 026°02'0 0.4
2017-Nov-15 16:25N 70°59' E 026°02'0 0.0
2017-Nov-15 15:46N 70°59' E 026°02'0 0.0
2017-Nov-15 15:28N 70°59' E 026°02'0 0.9
2017-Nov-15 14:59N 70°59' E 026°01'1 1.8
2017-Nov-15 14:28N 70°59' E 025°58'0 0.0
2017-Nov-15 13:58N 70°59' E 025°58'0 0.0
2017-Nov-15 13:28N 70°59' E 025°58'0 0.0
2017-Nov-15 12:58N 70°59' E 025°58'0 0.0
2017-Nov-15 12:28N 70°59' E 025°58'0 0.0
2017-Nov-15 11:58N 70°59' E 025°58'0 0.0
2017-Nov-15 11:28N 70°59' E 025°58'0 0.0
2017-Nov-15 10:58N 70°59' E 025°58'0 0.0
2017-Nov-15 10:28N 70°59' E 025°58'0 0.0
2017-Nov-15 09:58N 70°59' E 025°58'0 0.0
2017-Nov-15 09:28N 70°59' E 025°58'0 0.0
2017-Nov-15 08:58N 70°59' E 025°58'0 0.0
2017-Nov-15 08:28N 70°59' E 025°58'0 0.0
2017-Nov-15 07:58N 70°59' E 025°58'0 0.0
2017-Nov-15 07:28N 70°59' E 025°58'0 0.0
2017-Nov-15 06:58N 70°59' E 025°58'0 0.0
2017-Nov-15 06:28N 70°59' E 025°58'0 0.0
2017-Nov-15 05:58N 70°59' E 025°58'0 0.0
2017-Nov-15 05:28N 70°59' E 025°58'0 0.0
2017-Nov-15 04:58N 70°59' E 025°58'0 0.0
2017-Nov-15 04:28N 70°59' E 025°58'0 0.0
2017-Nov-15 03:58N 70°59' E 025°58'0 0.0
2017-Nov-15 03:28N 70°59' E 025°58'0 0.0
2017-Nov-15 02:58N 70°59' E 025°58'0 0.0
2017-Nov-15 02:28N 70°59' E 025°58'0 0.0
2017-Nov-15 01:58N 70°59' E 025°58'0 0.0
2017-Nov-15 01:28N 70°59' E 025°58'0 0.0
2017-Nov-15 00:58N 70°59' E 025°58'0 0.0
2017-Nov-15 00:28N 70°59' E 025°58'0 0.0
2017-Nov-14 23:58N 70°59' E 025°58'0 0.0
2017-Nov-14 23:28N 70°59' E 025°58'0 0.0
2017-Nov-14 22:58N 70°59' E 025°58'0 0.0
2017-Nov-14 22:28N 70°59' E 025°58'0 0.0
2017-Nov-14 21:58N 70°59' E 025°58'0 0.0
2017-Nov-14 21:28N 70°59' E 025°58'0 0.0
2017-Nov-14 20:58N 70°59' E 025°58'0 0.0
2017-Nov-14 20:28N 70°59' E 025°58'0 0.0
2017-Nov-14 19:58N 70°59' E 025°58'0 0.0
2017-Nov-14 19:28N 70°59' E 025°58'1 1.1
2017-Nov-14 19:00N 70°59' E 025°57'4 7.8
2017-Nov-14 18:29N 70°59' E 026°09'4 8.6
2017-Nov-14 18:00N 71°01' E 026°21'4 8.5
2017-Nov-14 17:30N 71°03' E 026°31'5 8.9
2017-Nov-14 17:00N 71°08' E 026°36'4 9.1
2017-Nov-14 16:30N 71°12' E 026°41'4 8.7
2017-Nov-14 16:00N 71°16' E 026°44'5 8.7
2017-Nov-14 15:29N 71°21' E 026°44'3 5.8
2017-Nov-14 15:00N 71°23' E 026°42'2 3.1
2017-Nov-14 14:29N 71°25' E 026°43'1 2.7
2017-Nov-14 14:00N 71°24' E 026°42'2 3.8
2017-Nov-14 13:29N 71°26' E 026°43'2 4.1
2017-Nov-14 13:00N 71°26' E 026°49'2 3.1
2017-Nov-14 12:30N 71°24' E 026°49'0 0.6
2017-Nov-14 12:00N 71°25' E 026°48'2 3.0
2017-Nov-14 11:29N 71°26' E 026°50'2 3.7
2017-Nov-14 11:00N 71°25' E 026°55'0 0.6
2017-Nov-14 10:30N 71°25' E 026°54'2 3.2
2017-Nov-14 10:00N 71°23' E 026°55'1 2.7
2017-Nov-14 09:30N 71°24' E 026°54'1 1.6
2017-Nov-14 09:00N 71°25' E 026°54'0 0.5
2017-Nov-14 08:30N 71°25' E 026°54'0 0.5
2017-Nov-14 08:00N 71°25' E 026°55'0 0.5
2017-Nov-14 07:30N 71°25' E 026°55'0 0.7
2017-Nov-14 07:00N 71°25' E 026°56'0 0.8
2017-Nov-14 06:30N 71°25' E 026°57'1 1.0
2017-Nov-14 05:59N 71°26' E 026°59'4 7.7
2017-Nov-14 05:30N 71°22' E 026°59'4 7.3
2017-Nov-14 05:00N 71°18' E 026°55'4 7.2
2017-Nov-14 04:30N 71°15' E 026°49'3 6.9
2017-Nov-14 04:00N 71°12' E 026°43'3 6.6
2017-Nov-14 03:30N 71°10' E 026°38'3 6.2
2017-Nov-14 03:00N 71°07' E 026°32'3 6.2
2017-Nov-14 02:30N 71°05' E 026°26'3 6.8
2017-Nov-14 02:00N 71°02' E 026°20'4 7.1
2017-Nov-14 01:30N 70°60' E 026°12'3 7.0
2017-Nov-14 01:00N 70°58' E 026°02'1 1.5
2017-Nov-14 00:30N 70°59' E 026°02'0 0.4
2017-Nov-13 23:57N 70°59' E 026°02'0 0.0
2017-Nov-13 23:30N 70°59' E 026°02'2 3.2
2017-Nov-13 23:00N 70°59' E 025°57'0 0.9
2017-Nov-13 22:30N 70°59' E 025°58'0 0.0
2017-Nov-13 22:00N 70°59' E 025°58'  

Dump ship's entire track history